createdAt,value
2023-04-12T00:01:11.206Z,100810.09
2023-04-12T00:03:54.923Z,100810.47
2023-04-12T00:06:38.622Z,100803.03
2023-04-12T00:09:22.204Z,100798.28
2023-04-12T00:12:06.469Z,100795.13
2023-04-12T00:14:50.063Z,100789.88
2023-04-12T00:17:33.677Z,100793.56
2023-04-12T00:20:18.415Z,100794.69
2023-04-12T00:23:02.610Z,100780.50
2023-04-12T00:25:46.426Z,100778.44
2023-04-12T00:28:30.154Z,100786.09
2023-04-12T00:31:13.938Z,100785.09
2023-04-12T00:33:57.601Z,100784.44
2023-04-12T00:36:43.311Z,100774.94
2023-04-12T00:39:27.546Z,100774.59
2023-04-12T00:42:14.162Z,100776.66
2023-04-12T00:44:57.643Z,100777.69
2023-04-12T00:47:45.349Z,100784.53
2023-04-12T00:50:29.051Z,100781.53
2023-04-12T00:53:18.413Z,100782.19
2023-04-12T00:56:03.910Z,100800.09
2023-04-12T00:58:47.537Z,100783.94
2023-04-12T01:01:32.135Z,100790.13
2023-04-12T01:04:16.368Z,100786.44
2023-04-12T01:07:22.438Z,100778.09
2023-04-12T01:10:30.363Z,100781.59
2023-04-12T01:13:26.805Z,100777.19
2023-04-12T01:16:41.106Z,100772.00
2023-04-12T01:20:22.377Z,100768.25
2023-04-12T01:23:19.119Z,100755.72
2023-04-12T01:26:28.312Z,100763.06
2023-04-12T01:29:19.387Z,100754.00
2023-04-12T01:32:05.850Z,100747.09
2023-04-12T01:34:52.026Z,100744.34
2023-04-12T01:37:37.352Z,100738.19
2023-04-12T01:40:21.805Z,100743.28
2023-04-12T01:43:13.675Z,100739.53
2023-04-12T01:45:57.304Z,100744.75
2023-04-12T01:48:54.794Z,100742.13
2023-04-12T01:51:47.415Z,100739.59
2023-04-12T01:54:41.584Z,100743.44
2023-04-12T01:57:27.621Z,100742.00
2023-04-12T02:00:12.742Z,100735.88
2023-04-12T02:02:59.932Z,100729.22
2023-04-12T02:05:44.737Z,100731.28
2023-04-12T02:08:28.377Z,100738.00
2023-04-12T02:11:12.245Z,100739.59
2023-04-12T02:13:56.103Z,100730.47
2023-04-12T02:16:42.361Z,100727.50
2023-04-12T02:19:26.070Z,100722.56
2023-04-12T02:22:10.522Z,100721.09
2023-04-12T02:24:54.270Z,100717.00
2023-04-12T02:27:37.893Z,100705.47
2023-04-12T02:30:21.835Z,100694.22
2023-04-12T02:33:09.708Z,100701.88
2023-04-12T02:35:54.616Z,100702.44
2023-04-12T02:38:38.249Z,100694.81
2023-04-12T02:41:24.950Z,100700.53
2023-04-12T02:44:08.473Z,100689.88
2023-04-12T02:46:53.583Z,100689.56
2023-04-12T02:49:37.087Z,100686.31
2023-04-12T02:52:21.533Z,100680.94
2023-04-12T02:55:20.352Z,100682.38
2023-04-12T02:58:03.966Z,100674.94
2023-04-12T03:00:50.143Z,100682.31
2023-04-12T03:03:39.154Z,100674.34
2023-04-12T03:06:52.433Z,100669.91
2023-04-12T03:09:42.704Z,100668.69
2023-04-12T03:12:26.740Z,100661.81
2023-04-12T03:15:29.443Z,100652.41
2023-04-12T03:18:13.074Z,100652.63
2023-04-12T03:21:05.925Z,100648.91
2023-04-12T03:23:49.456Z,100641.94
2023-04-12T03:26:35.816Z,100637.75
2023-04-12T03:29:29.291Z,100627.25
2023-04-12T03:32:12.808Z,100640.31
2023-04-12T03:34:58.099Z,100636.88
2023-04-12T03:37:43.897Z,100637.63
2023-04-12T03:40:28.724Z,100633.56
2023-04-12T03:43:14.895Z,100619.34
2023-04-12T03:45:58.494Z,100620.75
2023-04-12T03:48:43.402Z,100619.91
2023-04-12T03:51:27.176Z,100615.41
2023-04-12T03:54:17.186Z,100608.88
2023-04-12T03:57:14.030Z,100599.47
2023-04-12T04:00:01.080Z,100597.34
2023-04-12T04:03:03.852Z,100590.56
2023-04-12T04:05:53.476Z,100587.50
2023-04-12T04:08:38.216Z,100582.88
2023-04-12T04:11:21.879Z,100586.91
2023-04-12T04:14:10.214Z,100589.78
2023-04-12T04:16:54.245Z,100590.72
2023-04-12T04:19:39.789Z,100586.06
2023-04-12T04:22:23.539Z,100584.53
2023-04-12T04:25:09.658Z,100590.47
2023-04-12T04:27:58.275Z,100589.09
2023-04-12T04:30:46.289Z,100588.78
2023-04-12T04:33:33.889Z,100581.81
2023-04-12T04:36:19.365Z,100587.72
2023-04-12T04:39:09.262Z,100585.53
2023-04-12T04:41:57.621Z,100580.22
2023-04-12T04:45:02.851Z,100579.66
2023-04-12T04:47:50.151Z,100577.09
2023-04-12T04:50:33.983Z,100574.31
2023-04-12T04:53:21.275Z,100575.28
2023-04-12T04:56:05.879Z,100577.22
2023-04-12T04:58:52.178Z,100574.25
2023-04-12T05:01:38.332Z,100579.31
2023-04-12T05:04:22.510Z,100573.22
2023-04-12T05:07:06.150Z,100570.22
2023-04-12T05:09:50.197Z,100569.69
2023-04-12T05:12:36.727Z,100568.03
2023-04-12T05:15:21.422Z,100569.63
2023-04-12T05:18:05.719Z,100572.25
2023-04-12T05:20:49.381Z,100579.78
2023-04-12T05:23:41.936Z,100565.47
2023-04-12T05:26:27.829Z,100567.56
2023-04-12T05:29:12.304Z,100560.53
2023-04-12T05:31:59.356Z,100562.13
2023-04-12T05:34:44.196Z,100561.09
2023-04-12T05:37:28.734Z,100554.50
2023-04-12T05:40:12.762Z,100560.09
2023-04-12T05:42:56.739Z,100553.38
2023-04-12T05:45:42.109Z,100541.28
2023-04-12T05:48:26.598Z,100544.03
2023-04-12T05:51:12.706Z,100540.56
2023-04-12T05:53:56.462Z,100538.25
2023-04-12T05:56:41.106Z,100541.97
2023-04-12T05:59:24.647Z,100521.38
2023-04-12T06:02:09.594Z,100519.38
2023-04-12T06:04:55.872Z,100516.03
2023-04-12T06:07:42.260Z,100508.72
2023-04-12T06:10:25.805Z,100499.91
2023-04-12T06:13:10.653Z,100496.91
2023-04-12T06:15:58.057Z,100497.38
2023-04-12T06:18:41.850Z,100501.38
2023-04-12T06:21:25.681Z,100490.28
2023-04-12T06:24:09.314Z,100482.97
2023-04-12T06:26:53.056Z,100482.41
2023-04-12T06:29:37.010Z,100480.28
2023-04-12T06:32:20.717Z,100476.22
2023-04-12T06:35:08.234Z,100467.22
2023-04-12T06:37:51.772Z,100470.94
2023-04-12T06:40:35.480Z,100464.44
2023-04-12T06:43:20.503Z,100455.78
2023-04-12T06:46:04.261Z,100457.00
2023-04-12T06:48:47.805Z,100459.03
2023-04-12T06:51:31.375Z,100449.34
2023-04-12T06:54:14.913Z,100448.56
2023-04-12T06:56:58.714Z,100448.28
2023-04-12T06:59:42.311Z,100439.16
2023-04-12T07:02:25.917Z,100446.47
2023-04-12T07:05:09.659Z,100439.16
2023-04-12T07:07:54.054Z,100435.81
2023-04-12T07:10:38.001Z,100433.09
2023-04-12T07:13:22.628Z,100427.50
2023-04-12T07:16:08.676Z,100424.16
2023-04-12T07:18:52.225Z,100415.97
2023-04-12T07:21:35.757Z,100412.78
2023-04-12T07:24:19.282Z,100408.53
2023-04-12T07:27:02.913Z,100401.00
2023-04-12T07:29:46.734Z,100402.34
2023-04-12T07:32:30.723Z,100401.09
2023-04-12T07:35:14.456Z,100397.78
2023-04-12T07:37:58.395Z,100400.38
2023-04-12T07:40:41.898Z,100390.22
2023-04-12T07:43:27.931Z,100390.59
2023-04-12T07:46:11.582Z,100381.69
2023-04-12T07:48:55.441Z,100385.22
2023-04-12T07:51:39.446Z,100375.47
2023-04-12T07:54:23.630Z,100376.94
2023-04-12T07:57:09.080Z,100370.66
2023-04-12T07:59:52.881Z,100360.75
2023-04-12T08:02:37.001Z,100351.09
2023-04-12T08:05:20.821Z,100346.28
2023-04-12T08:08:04.857Z,100349.13
2023-04-12T08:10:49.049Z,100351.13
2023-04-12T08:13:34.208Z,100340.97
2023-04-12T08:16:17.783Z,100338.00
2023-04-12T08:19:01.649Z,100334.03
2023-04-12T08:21:45.260Z,100329.59
2023-04-12T08:24:28.815Z,100323.53
2023-04-12T08:27:14.057Z,100317.16
2023-04-12T08:29:58.015Z,100321.38
2023-04-12T08:32:41.992Z,100315.81
2023-04-12T08:35:25.679Z,100316.13
2023-04-12T08:38:09.308Z,100315.06
2023-04-12T08:40:52.862Z,100307.22
2023-04-12T08:43:43.025Z,100305.84
2023-04-12T08:46:27.217Z,100294.16
2023-04-12T08:49:13.890Z,100293.78
2023-04-12T08:52:03.249Z,100287.88
2023-04-12T08:54:47.415Z,100281.84
2023-04-12T08:57:34.553Z,100278.19
2023-04-12T09:00:20.710Z,100273.78
2023-04-12T09:03:05.755Z,100269.38
2023-04-12T09:05:49.455Z,100265.34
2023-04-12T09:08:33.195Z,100259.66
2023-04-12T09:11:28.854Z,100260.59
2023-04-12T09:14:26.074Z,100257.41
2023-04-12T09:17:27.522Z,100250.19
2023-04-12T09:20:17.405Z,100252.50
2023-04-12T09:23:03.036Z,100246.94
2023-04-12T09:25:53.608Z,100240.38
2023-04-12T09:28:37.445Z,100239.84
2023-04-12T09:31:21.172Z,100228.56
2023-04-12T09:34:09.365Z,100232.03
2023-04-12T09:36:54.043Z,100217.50
2023-04-12T09:39:38.792Z,100205.34
2023-04-12T09:42:33.401Z,100206.13
2023-04-12T09:45:26.448Z,100203.28
2023-04-12T09:48:21.197Z,100199.84
2023-04-12T09:51:05.120Z,100188.84
2023-04-12T09:53:50.965Z,100185.03
2023-04-12T09:56:39.983Z,100175.00
2023-04-12T09:59:28.426Z,100167.06
2023-04-12T10:02:17.715Z,100158.72
2023-04-12T10:05:02.638Z,100154.84
2023-04-12T10:07:47.687Z,100164.22
2023-04-12T10:10:31.498Z,100148.69
2023-04-12T10:13:17.602Z,100140.81
2023-04-12T10:16:01.564Z,100131.03
2023-04-12T10:18:47.394Z,100120.75
2023-04-12T10:21:31.658Z,100119.75
2023-04-12T10:24:17.539Z,100109.19
2023-04-12T10:27:03.394Z,100103.88
2023-04-12T10:29:47.385Z,100096.00
2023-04-12T10:32:33.470Z,100092.50
2023-04-12T10:35:19.293Z,100087.94
2023-04-12T10:38:05.925Z,100089.28
2023-04-12T10:41:17.009Z,100076.09
2023-04-12T10:44:29.640Z,100071.75
2023-04-12T10:47:13.478Z,100070.31
2023-04-12T10:50:30.285Z,100060.44
2023-04-12T10:53:20.875Z,100055.78
2023-04-12T10:56:32.066Z,100049.84
2023-04-12T10:59:16.836Z,100038.44
2023-04-12T11:02:12.247Z,100030.94
2023-04-12T11:05:10.527Z,100036.88
2023-04-12T11:08:29.706Z,100033.72
2023-04-12T11:11:36.081Z,100024.25
2023-04-12T11:14:31.058Z,100021.91
2023-04-12T11:17:15.078Z,100013.63
2023-04-12T11:20:01.220Z,100012.81
2023-04-12T11:22:44.802Z,100003.78
2023-04-12T11:25:29.429Z,100001.03
2023-04-12T11:28:28.551Z,99990.00
2023-04-12T11:31:15.253Z,99998.25
2023-04-12T11:34:00.477Z,99989.59
2023-04-12T11:36:53.788Z,99991.50
2023-04-12T11:39:43.802Z,99993.13
2023-04-12T11:42:29.561Z,99979.34
2023-04-12T11:45:20.429Z,99985.63
2023-04-12T11:48:09.619Z,99972.66
2023-04-12T11:51:07.771Z,99972.94
2023-04-12T11:53:57.149Z,99961.16
2023-04-12T11:56:42.569Z,99965.44
2023-04-12T11:59:35.686Z,99955.16
2023-04-12T12:02:23.986Z,99943.41
2023-04-12T12:05:09.091Z,99940.44
2023-04-12T12:07:54.246Z,99923.63
2023-04-12T12:10:55.545Z,99920.72
2023-04-12T12:13:53.007Z,99912.19
2023-04-12T12:16:36.550Z,99911.94
2023-04-12T12:19:30.496Z,99899.16
2023-04-12T12:22:20.491Z,99902.25
2023-04-12T12:25:04.292Z,99887.13
2023-04-12T12:27:51.463Z,99880.72
2023-04-12T12:30:40.327Z,99875.31
2023-04-12T12:33:35.123Z,99877.91
2023-04-12T12:36:36.515Z,99870.19
2023-04-12T12:39:22.759Z,99861.91
2023-04-12T12:42:06.613Z,99843.91
2023-04-12T12:44:50.186Z,99845.06
2023-04-12T12:47:33.872Z,99845.38
2023-04-12T12:50:19.416Z,99843.50
2023-04-12T12:53:05.918Z,99847.03
2023-04-12T12:55:49.541Z,99832.84
2023-04-12T12:58:33.115Z,99839.19
2023-04-12T13:01:16.832Z,99829.72
2023-04-12T13:04:00.583Z,99830.88
2023-04-12T13:06:44.297Z,99828.50
2023-04-12T13:09:27.820Z,99829.31
2023-04-12T13:12:11.787Z,99815.13
2023-04-12T13:15:00.319Z,99802.84
2023-04-12T13:17:53.247Z,99799.34
2023-04-12T13:20:37.097Z,99793.75
2023-04-12T13:23:20.956Z,99799.78
2023-04-12T13:26:04.782Z,99788.78
2023-04-12T13:28:48.281Z,99795.09
2023-04-12T13:31:32.038Z,99785.84
2023-04-12T13:34:16.087Z,99772.47
2023-04-12T13:37:00.403Z,99764.34
2023-04-12T13:39:44.887Z,99781.91
2023-04-12T13:42:28.606Z,99771.03
2023-04-12T13:45:12.327Z,99760.06
2023-04-12T13:47:56.741Z,99772.25
2023-04-12T13:50:40.336Z,99764.38
2023-04-12T13:53:23.887Z,99757.66
2023-04-12T13:56:07.743Z,99752.91
2023-04-12T13:58:51.305Z,99745.09
2023-04-12T14:01:34.901Z,99750.19
2023-04-12T14:04:18.530Z,99735.25
2023-04-12T14:07:02.195Z,99740.38
2023-04-12T14:09:45.829Z,99726.19
2023-04-12T14:12:29.794Z,99731.72
2023-04-12T14:15:14.056Z,99734.84
2023-04-12T14:17:57.681Z,99727.72
2023-04-12T14:20:41.294Z,99735.22
2023-04-12T14:23:26.268Z,99720.97
2023-04-12T14:26:16.069Z,99716.69
2023-04-12T14:29:00.017Z,99719.47
2023-04-12T14:31:43.934Z,99721.47
2023-04-12T14:34:27.483Z,99712.41
2023-04-12T14:37:11.250Z,99713.16
2023-04-12T14:39:54.817Z,99709.69
2023-04-12T14:42:38.693Z,99726.16
2023-04-12T14:45:22.283Z,99712.34
2023-04-12T14:48:06.188Z,99715.19
2023-04-12T14:50:49.760Z,99723.66
2023-04-12T14:53:34.672Z,99716.22
2023-04-12T14:56:25.507Z,99718.78
2023-04-12T14:59:09.890Z,99721.84
2023-04-12T15:01:53.758Z,99723.06
2023-04-12T15:04:37.781Z,99720.75
2023-04-12T15:07:21.494Z,99725.41
2023-04-12T15:10:06.687Z,99742.53
2023-04-12T15:12:50.208Z,99738.00
2023-04-12T15:15:33.755Z,99739.25
2023-04-12T15:18:17.388Z,99737.16
2023-04-12T15:21:03.089Z,99743.97
2023-04-12T15:23:50.978Z,99740.53
2023-04-12T15:26:36.497Z,99746.50
2023-04-12T15:29:22.835Z,99737.16
2023-04-12T15:32:08.894Z,99749.44
2023-04-12T15:34:53.589Z,99743.94
2023-04-12T15:37:39.445Z,99753.66
2023-04-12T15:40:23.143Z,99747.16
2023-04-12T15:43:06.718Z,99754.94
2023-04-12T15:45:53.491Z,99756.31
2023-04-12T15:48:38.997Z,99751.56
2023-04-12T15:51:24.069Z,99750.75
2023-04-12T15:54:07.778Z,99751.13
2023-04-12T15:56:51.318Z,99750.00
2023-04-12T15:59:35.378Z,99744.34
2023-04-12T16:02:19.058Z,99744.63
2023-04-12T16:05:02.703Z,99747.94
2023-04-12T16:07:46.805Z,99740.88
2023-04-12T16:10:30.566Z,99734.16
2023-04-12T16:13:14.755Z,99729.81
2023-04-12T16:15:58.343Z,99735.31
2023-04-12T16:18:42.472Z,99723.00
2023-04-12T16:21:26.976Z,99720.63
2023-04-12T16:24:11.608Z,99719.94
2023-04-12T16:26:55.253Z,99714.16
2023-04-12T16:29:40.425Z,99716.22
2023-04-12T16:32:24.122Z,99702.88
2023-04-12T16:35:08.741Z,99701.66
2023-04-12T16:37:52.574Z,99701.88
2023-04-12T16:40:36.106Z,99707.59
2023-04-12T16:43:19.643Z,99694.88
2023-04-12T16:46:07.380Z,99703.56
2023-04-12T16:48:51.052Z,99700.09
2023-04-12T16:51:36.766Z,99705.06
2023-04-12T16:54:21.975Z,99700.34
2023-04-12T16:57:06.009Z,99696.00
2023-04-12T16:59:50.554Z,99687.94
2023-04-12T17:02:34.977Z,99685.88
2023-04-12T17:05:21.303Z,99697.72
2023-04-12T17:08:05.874Z,99700.06
2023-04-12T17:10:49.490Z,99695.97
2023-04-12T17:13:33.023Z,99691.22
2023-04-12T17:16:16.647Z,99687.47
2023-04-12T17:19:00.445Z,99688.94
2023-04-12T17:21:44.839Z,99684.38
2023-04-12T17:24:29.346Z,99675.63
2023-04-12T17:27:12.950Z,99675.19
2023-04-12T17:29:56.434Z,99673.94
2023-04-12T17:32:40.724Z,99677.19
2023-04-12T17:35:24.545Z,99673.66
2023-04-12T17:38:08.376Z,99668.00
2023-04-12T17:40:52.513Z,99664.00
2023-04-12T17:43:36.325Z,99657.06
2023-04-12T17:46:20.153Z,99647.22
2023-04-12T17:49:05.913Z,99654.31
2023-04-12T17:51:49.632Z,99654.63
2023-04-12T17:54:37.148Z,99646.44
2023-04-12T17:57:21.231Z,99644.72
2023-04-12T18:00:09.619Z,99642.09
2023-04-12T18:02:56.208Z,99649.94
2023-04-12T18:05:40.997Z,99653.53
2023-04-12T18:08:25.031Z,99653.22
2023-04-12T18:11:09.113Z,99646.59
2023-04-12T18:13:52.629Z,99662.25
2023-04-12T18:16:37.546Z,99663.16
2023-04-12T18:19:21.288Z,99666.50
2023-04-12T18:22:04.803Z,99669.16
2023-04-12T18:24:48.401Z,99666.72
2023-04-12T18:27:32.285Z,99666.22
2023-04-12T18:30:17.449Z,99663.13
2023-04-12T18:33:03.944Z,99656.09
2023-04-12T18:35:47.510Z,99649.72
2023-04-12T18:38:35.666Z,99652.41
2023-04-12T18:41:19.175Z,99657.16
2023-04-12T18:44:03.668Z,99657.94
2023-04-12T18:46:47.358Z,99658.91
2023-04-12T18:49:31.468Z,99659.28
2023-04-12T18:52:19.286Z,99653.75
2023-04-12T18:55:08.323Z,99656.06
2023-04-12T18:57:51.863Z,99653.50
2023-04-12T19:00:35.618Z,99649.63
2023-04-12T19:03:19.258Z,99652.00
2023-04-12T19:06:04.568Z,99652.75
2023-04-12T19:08:49.870Z,99649.72
2023-04-12T19:11:36.236Z,99661.88
2023-04-12T19:14:21.253Z,99660.44
2023-04-12T19:17:04.818Z,99653.88
2023-04-12T19:19:48.674Z,99650.38
2023-04-12T19:22:32.184Z,99643.31
2023-04-12T19:25:18.225Z,99643.91
2023-04-12T19:28:03.112Z,99639.66
2023-04-12T19:30:46.823Z,99628.84
2023-04-12T19:33:30.406Z,99630.47
2023-04-12T19:36:14.278Z,99622.03
2023-04-12T19:38:58.027Z,99619.41
2023-04-12T19:41:41.702Z,99619.84
2023-04-12T19:44:26.157Z,99622.47
2023-04-12T19:47:09.724Z,99620.09
2023-04-12T19:49:53.352Z,99612.25
2023-04-12T19:52:36.914Z,99608.94
2023-04-12T19:55:21.635Z,99618.13
2023-04-12T19:58:05.178Z,99607.25
2023-04-12T20:00:52.373Z,99604.53
2023-04-12T20:03:35.969Z,99601.09
2023-04-12T20:06:19.722Z,99601.50
2023-04-12T20:09:03.420Z,99595.25
2023-04-12T20:11:47.081Z,99595.41
2023-04-12T20:14:32.466Z,99595.00
2023-04-12T20:17:16.393Z,99595.00
2023-04-12T20:19:59.959Z,99592.47
2023-04-12T20:22:51.971Z,99588.47
2023-04-12T20:25:37.848Z,99591.78
2023-04-12T20:28:21.459Z,99590.03
2023-04-12T20:31:06.281Z,99581.19
2023-04-12T20:33:50.112Z,99583.84
2023-04-12T20:36:33.712Z,99571.06
2023-04-12T20:39:17.915Z,99557.06
2023-04-12T20:42:01.552Z,99547.34
2023-04-12T20:44:45.788Z,99552.91
2023-04-12T20:47:29.370Z,99554.09
2023-04-12T20:50:13.017Z,99565.84
2023-04-12T20:52:56.538Z,99566.13
2023-04-12T20:55:40.365Z,99568.28
2023-04-12T20:58:26.760Z,99561.00
2023-04-12T21:01:15.168Z,99559.78
2023-04-12T21:04:06.004Z,99558.75
2023-04-12T21:06:50.870Z,99547.44
2023-04-12T21:09:34.415Z,99555.03
2023-04-12T21:12:18.358Z,99549.38
2023-04-12T21:15:03.484Z,99545.16
2023-04-12T21:17:47.230Z,99546.72
2023-04-12T21:20:30.809Z,99545.44
2023-04-12T21:23:18.456Z,99552.38
2023-04-12T21:26:02.691Z,99551.06
2023-04-12T21:28:46.256Z,99535.25
2023-04-12T21:31:30.738Z,99546.13
2023-04-12T21:34:14.823Z,99541.72
2023-04-12T21:37:02.823Z,99539.25
2023-04-12T21:39:47.604Z,99551.16
2023-04-12T21:42:31.269Z,99543.09
2023-04-12T21:45:15.133Z,99542.47
2023-04-12T21:47:58.655Z,99545.06
2023-04-12T21:50:42.272Z,99547.47
2023-04-12T21:53:25.947Z,99544.69
2023-04-12T21:56:10.116Z,99539.13
2023-04-12T21:58:53.727Z,99545.53
2023-04-12T22:01:38.235Z,99550.25
2023-04-12T22:04:22.344Z,99548.00
2023-04-12T22:07:10.152Z,99542.31
2023-04-12T22:09:53.968Z,99536.59
2023-04-12T22:12:38.342Z,99535.22
2023-04-12T22:15:22.311Z,99538.47
2023-04-12T22:18:06.430Z,99534.81
2023-04-12T22:20:50.048Z,99548.50
2023-04-12T22:23:37.007Z,99535.75
2023-04-12T22:26:20.589Z,99542.38
2023-04-12T22:29:04.972Z,99542.91
2023-04-12T22:31:48.536Z,99547.53
2023-04-12T22:34:32.655Z,99549.47
2023-04-12T22:37:16.358Z,99558.75
2023-04-12T22:40:02.388Z,99572.00
2023-04-12T22:42:47.419Z,99570.22
2023-04-12T22:45:31.556Z,99570.47
2023-04-12T22:48:16.208Z,99562.91
2023-04-12T22:51:01.302Z,99550.81
2023-04-12T22:53:44.889Z,99546.28
2023-04-12T22:56:29.335Z,99553.25
2023-04-12T22:59:14.643Z,99534.44
2023-04-12T23:01:58.252Z,99537.09
2023-04-12T23:04:43.989Z,99544.47
2023-04-12T23:07:30.265Z,99540.53
2023-04-12T23:10:14.041Z,99545.53
2023-04-12T23:12:57.600Z,99544.94
2023-04-12T23:15:45.411Z,99546.75
2023-04-12T23:18:29.202Z,99550.03
2023-04-12T23:21:12.701Z,99542.25
2023-04-12T23:23:56.758Z,99525.94
2023-04-12T23:26:40.609Z,99537.44
2023-04-12T23:29:25.905Z,99540.00
2023-04-12T23:32:09.408Z,99536.38
2023-04-12T23:34:54.902Z,99532.25
2023-04-12T23:37:41.143Z,99525.94
2023-04-12T23:40:28.367Z,99537.94
2023-04-12T23:43:11.843Z,99538.81
2023-04-12T23:45:56.729Z,99536.56
2023-04-12T23:48:40.643Z,99554.94
2023-04-12T23:51:24.187Z,99552.59
2023-04-12T23:54:07.785Z,99543.91
2023-04-12T23:56:51.281Z,99533.66
2023-04-12T23:59:34.800Z,99530.16
